Coldwater, MI

1:48 PM EDT on May 26, 2017 (GMT -0400)
Branch County Memorial

Weather History for KOEB - April, 2013

Change the Weather History Date:

Wednesday, April 3, 2013

  Actual Average (KJYM) Record (KJYM)
Temperature  
Mean Temperature 32 °F -  
Max Temperature 44 °F 49 °F 77 °F (1956)
Min Temperature 19 °F 30 °F 14 °F (1954)
Degree Days  
Heating Degree Days 34    
Moisture  
Dew Point 12 °F    
Average Humidity 50    
Maximum Humidity 80    
Minimum Humidity 21    
Precipitation  
Precipitation 0.00 in - - ()
Sea Level Pressure  
Sea Level Pressure 30.33 in    
Wind  
Wind Speed 4 mph (NW)    
Max Wind Speed 14 mph    
Max Gust Speed 20 mph    
Visibility 10 miles    
Events      
Averages and records for this station are not official NWS values.
T = Trace of Precipitation, MM = Missing Value Source: NWS Daily Summary

Daily Weather History Graph

Daily Weather History Graph

Search for Another Location

Airport or City:

Trip Planner

Search our weather history database for the weather conditions in past years. The results will help you decide how hot, cold, wet, or windy it might be!

Date:

Astronomy

Apr. 03, 2013 Rise Set
Actual Time 7:19 AM EDT 8:08 PM EDT
Civil Twilight 6:50 AM EDT 8:36 PM EDT
Nautical Twilight 6:17 AM EDT 9:10 PM EDT
Astronomical Twilight 5:42 AM EDT 9:45 PM EDT
Moon 3:05 AM EDT (4/3) 1:13 PM EDT (4/3)
Length of Visible Light 13h 45m
Length of Day
12h 49m
Last Quarter, 45% of the Moon is Illuminated
Apr 3
Last Quarter
Apr 10
New
Apr 18
First Quarter
Apr 25
Full
May 2
Last Quarter

Hourly Weather History & Observations

Time (EDT) Temp. Windchill Dew Point Humidity Pressure Visibility Wind Dir Wind Speed Gust Speed Precip Events Conditions
12:14 AM 27.0 °F 23.0 °F 12.9 °F 56% 30.25 in 10.0 mi NW 3.5 mph - N/A   Clear
12:34 AM 27.0 °F 21.6 °F 13.6 °F 57% 30.25 in 10.0 mi NNW 4.6 mph - N/A   Clear
12:54 AM 25.7 °F - 14.4 °F 62% 30.25 in 10.0 mi Calm Calm - N/A   Clear
1:14 AM 25.0 °F 20.7 °F 14.2 °F 64% 30.25 in 10.0 mi West 3.5 mph - N/A   Clear
1:34 AM 25.2 °F - 14.2 °F 63% 30.26 in 10.0 mi Calm Calm - N/A   Clear
1:54 AM 23.0 °F - 16.3 °F 76% 30.26 in 10.0 mi Calm Calm - N/A   Clear
2:14 AM 22.8 °F 18.2 °F 13.8 °F 68% 30.26 in 10.0 mi SW 3.5 mph - N/A   Clear
2:34 AM 20.3 °F 15.4 °F 14.0 °F 77% 30.27 in 10.0 mi WSW 3.5 mph - N/A   Clear
2:54 AM 20.8 °F 14.4 °F 13.6 °F 74% 30.27 in 10.0 mi WSW 4.6 mph - N/A   Clear
3:14 AM 21.6 °F 16.8 °F 13.5 °F 71% 30.27 in 10.0 mi WSW 3.5 mph - N/A   Clear
3:34 AM 20.5 °F - 14.4 °F 77% 30.27 in 10.0 mi Calm Calm - N/A   Clear
3:54 AM 19.6 °F - 13.1 °F 76% 30.27 in 10.0 mi Calm Calm - N/A   Clear
4:14 AM 21.2 °F - 13.6 °F 73% 30.27 in 10.0 mi Calm Calm - N/A   Clear
4:34 AM 20.3 °F - 13.3 °F 74% 30.27 in 10.0 mi Calm Calm - N/A   Clear
4:54 AM 19.2 °F 11.3 °F 13.6 °F 79% 30.28 in 10.0 mi SW 5.8 mph - N/A   Clear
5:15 AM 20.5 °F 12.8 °F 14.0 °F 76% 30.29 in 10.0 mi WSW 5.8 mph - N/A   Clear
5:34 AM 20.1 °F 13.6 °F 14.2 °F 78% 30.30 in 10.0 mi WSW 4.6 mph - N/A   Clear
5:54 AM 20.7 °F 15.8 °F 14.5 °F 77% 30.30 in 10.0 mi West 3.5 mph - N/A   Clear
6:15 AM 20.5 °F 11.7 °F 14.7 °F 78% 30.30 in 10.0 mi SW 6.9 mph - N/A   Clear
6:34 AM 20.8 °F 16.0 °F 14.7 °F 77% 30.31 in 10.0 mi WSW 3.5 mph - N/A   Clear
6:54 AM 19.8 °F 11.9 °F 14.2 °F 79% 30.31 in 10.0 mi WSW 5.8 mph - N/A   Clear
7:15 AM 20.3 °F 13.8 °F 14.7 °F 79% 30.32 in 10.0 mi WSW 4.6 mph - N/A   Clear
7:34 AM 20.8 °F 16.0 °F 15.4 °F 80% 30.33 in 10.0 mi WSW 3.5 mph - N/A   Clear
7:54 AM 21.2 °F 16.4 °F 15.6 °F 79% 30.33 in 10.0 mi WSW 3.5 mph - N/A   Clear
8:14 AM 23.9 °F 19.5 °F 17.8 °F 77% 30.34 in 10.0 mi West 3.5 mph - N/A   Clear
8:34 AM 27.1 °F 21.8 °F 19.2 °F 72% 30.35 in 10.0 mi WNW 4.6 mph - N/A   Clear
8:54 AM 28.8 °F 20.9 °F 20.3 °F 71% 30.36 in 10.0 mi WNW 8.1 mph - N/A   Clear
9:14 AM 29.7 °F 22.8 °F 21.2 °F 71% 30.37 in 10.0 mi NNW 6.9 mph - N/A   Clear
9:34 AM 30.2 °F 21.9 °F 20.3 °F 67% 30.38 in 10.0 mi North 9.2 mph - N/A   Clear
9:54 AM 31.1 °F 21.9 °F 18.0 °F 58% 30.38 in 10.0 mi North 11.5 mph - N/A   Clear
10:14 AM 32.2 °F 24.4 °F 15.1 °F 49% 30.39 in 10.0 mi North 9.2 mph - N/A   Clear
10:34 AM 32.7 °F 23.4 °F 10.0 °F 39% 30.40 in 10.0 mi North 12.7 mph - N/A   Clear
10:54 AM 33.8 °F 25.8 °F 9.7 °F 37% 30.40 in 10.0 mi NNW 10.4 mph 16.1 mph N/A   Clear
11:14 AM 34.9 °F 27.1 °F 8.1 °F 33% 30.39 in 10.0 mi NNW 10.4 mph 17.3 mph N/A   Clear
11:34 AM 36.7 °F 28.0 °F 8.1 °F 31% 30.40 in 10.0 mi NNW 13.8 mph 19.6 mph N/A   Clear
11:54 AM 36.5 °F 27.8 °F 7.2 °F 30% 30.42 in 10.0 mi NNW 13.8 mph 18.4 mph N/A   Clear
12:14 PM 37.4 °F 30.8 °F 8.1 °F 30% 30.41 in 10.0 mi NNW 9.2 mph 18.4 mph N/A   Clear
12:34 PM 37.6 °F 30.0 °F 8.1 °F 29% 30.40 in 10.0 mi North 11.5 mph 16.1 mph N/A   Clear
12:42 PM 38.3 °F 30.9 °F 6.8 °F 27% 30.40 in 10.0 mi NNW 11.5 mph 18.4 mph N/A   Clear
1:14 PM 39.0 °F 33.4 °F 5.9 °F 25% 30.39 in 10.0 mi NNW 8.1 mph 17.3 mph N/A   Clear
1:34 PM 38.8 °F 32.1 °F 7.2 °F 27% 30.38 in 10.0 mi North 10.4 mph - N/A   Clear
1:54 PM 40.5 °F 34.6 °F 6.8 °F 25% 30.38 in 10.0 mi NNW 9.2 mph 16.1 mph N/A   Clear
2:14 PM 40.1 °F 34.7 °F 8.4 °F 27% 30.38 in 10.0 mi NW 8.1 mph - N/A   Clear
2:34 PM 41.9 °F 38.2 °F 9.9 °F 27% 30.38 in 10.0 mi North 5.8 mph - N/A   Clear
2:54 PM 41.9 °F 36.9 °F 8.4 °F 25% 30.38 in 10.0 mi NW 8.1 mph - N/A   Clear
3:14 PM 41.7 °F 38.8 °F 6.8 °F 24% 30.38 in 10.0 mi NW 4.6 mph - N/A   Clear
3:34 PM 41.0 °F - 7.2 °F 25% 30.38 in 10.0 mi Calm Calm - N/A   Clear
3:54 PM 41.7 °F - 8.2 °F 25% 30.37 in 10.0 mi Calm Calm - N/A   Clear
4:14 PM 41.9 °F 39.0 °F 8.8 °F 26% 30.36 in 10.0 mi NE 4.6 mph - N/A   Clear
4:34 PM 42.8 °F 40.1 °F 7.2 °F 23% 30.36 in 10.0 mi North 4.6 mph - N/A   Clear
4:55 PM 44.1 °F 39.0 °F 8.1 °F 23% 30.35 in 10.0 mi NNW 9.2 mph - N/A   Clear
5:14 PM 42.8 °F - 5.4 °F 21% 30.35 in 10.0 mi Calm Calm - N/A   Clear
5:34 PM 42.4 °F 40.7 °F 7.7 °F 24% 30.35 in 10.0 mi ENE 3.5 mph - N/A   Clear
5:55 PM 42.6 °F 39.0 °F 7.3 °F 23% 30.35 in 10.0 mi NE 5.8 mph - N/A   Clear
6:14 PM 43.2 °F - 6.3 °F 22% 30.35 in 10.0 mi Calm Calm - N/A   Clear
6:34 PM 42.4 °F 40.7 °F 6.3 °F 23% 30.34 in 10.0 mi North 3.5 mph - N/A   Clear
6:54 PM 42.4 °F 40.7 °F 8.2 °F 25% 30.34 in 10.0 mi NE 3.5 mph - N/A   Clear
7:14 PM 41.9 °F - 6.6 °F 23% 30.33 in 10.0 mi Calm Calm - N/A   Clear
7:34 PM 41.4 °F 39.4 °F 9.5 °F 27% 30.33 in 10.0 mi ESE 3.5 mph - N/A   Clear
7:54 PM 39.9 °F - 9.9 °F 29% 30.33 in 10.0 mi Calm Calm - N/A   Clear
8:14 PM 39.2 °F - 8.6 °F 28% 30.34 in 10.0 mi Calm Calm - N/A   Clear
8:34 PM 36.0 °F - 10.9 °F 36% 30.34 in 10.0 mi Calm Calm - N/A   Clear
8:54 PM 35.6 °F - 9.1 °F 33% 30.33 in 10.0 mi Calm Calm - N/A   Clear
9:14 PM 34.3 °F - 11.3 °F 39% 30.33 in 10.0 mi Calm Calm - N/A   Clear
9:34 PM 32.0 °F 28.7 °F 15.8 °F 51% 30.34 in 10.0 mi SSE 3.5 mph - N/A   Clear
9:54 PM 31.1 °F 27.7 °F 15.4 °F 52% 30.34 in 10.0 mi SE 3.5 mph - N/A   Clear
10:14 PM 30.0 °F 26.5 °F 17.4 °F 59% 30.34 in 10.0 mi SSE 3.5 mph - N/A   Clear
10:34 PM 30.2 °F 26.7 °F 18.3 °F 61% 30.34 in 10.0 mi SSE 3.5 mph - N/A   Clear
10:54 PM 29.5 °F - 17.2 °F 60% 30.33 in 10.0 mi Calm Calm - N/A   Clear
11:14 PM 27.9 °F 24.0 °F 19.2 °F 70% 30.33 in 10.0 mi SSE 3.5 mph - N/A   Clear
11:34 PM 27.1 °F 23.2 °F 20.1 °F 75% 30.33 in 10.0 mi SSE 3.5 mph - N/A   Clear
11:54 PM 27.3 °F 22.0 °F 18.9 °F 70% 30.32 in 10.0 mi SSE 4.6 mph - N/A   Clear